aviador You're here:

KCGS Decoded Metar

COLLEGE PARK in MD, USA
Report Time2017-11-25 05:06:00
UTC Time2017-11-25 05:35:08
Flight Rules vfr VFR
WindCalm
Visibility9999 m
Phenomena:N/A
Clouds:N/A
Expected CloudBase > 800 ft AGL from Temp-Dew spread
CeilingNone
Temp00°C (ISA -15)
Dew Point-2°C (87% RH)
AAT-2.2°C
QNH1014 hPa
Density Alt-1,736 ft
Elevation49 ft
Report Wrong Elevation
Raw Report
METAR KCGS 250506Z AUTO 00000KT 10SM CLR 00/M02 A2993 RMK AO1 T10011018=

Extra information for KCGS:More info

Metar Taf Metar & Taf Last 4 Metars F.Rules Stats Wind Profile Meteogram Temp Stats Airport Information Weather charts Add Link Nearby VenuesMetar ALERT Operation Metar Decoded Social comments

AIRNAV info for KCGS